createdAt,value
2023-02-17T00:01:50.862Z,99348.00
2023-02-17T00:04:21.063Z,99338.00
2023-02-17T00:06:50.275Z,99351.00
2023-02-17T00:09:19.427Z,99349.00
2023-02-17T00:11:49.098Z,99356.00
2023-02-17T00:14:19.213Z,99365.00
2023-02-17T00:16:48.522Z,99378.00
2023-02-17T00:19:27.039Z,99376.00
2023-02-17T00:21:59.824Z,99370.00
2023-02-17T00:24:32.577Z,99366.00
2023-02-17T00:27:02.099Z,99382.00
2023-02-17T00:29:31.401Z,99376.00
2023-02-17T00:32:00.960Z,99390.00
2023-02-17T00:34:30.243Z,99388.00
2023-02-17T00:36:59.472Z,99394.00
2023-02-17T00:39:28.818Z,99400.00
2023-02-17T00:41:58.067Z,99399.00
2023-02-17T00:44:27.698Z,99407.00
2023-02-17T00:46:57.138Z,99408.00
2023-02-17T00:49:28.357Z,99402.00
2023-02-17T00:52:01.915Z,99407.00
2023-02-17T00:54:31.762Z,99421.00
2023-02-17T00:57:03.107Z,99418.00
2023-02-17T00:59:32.338Z,99421.00
2023-02-17T01:02:01.539Z,99423.00
2023-02-17T01:04:30.799Z,99428.00
2023-02-17T01:07:00.505Z,99425.00
2023-02-17T01:09:29.693Z,99432.00
2023-02-17T01:11:58.882Z,99437.00
2023-02-17T01:14:28.099Z,99436.00
2023-02-17T01:16:57.335Z,99448.00
2023-02-17T01:19:26.791Z,99449.00
2023-02-17T01:21:55.924Z,99449.00
2023-02-17T01:24:25.100Z,99451.00
2023-02-17T01:26:55.502Z,99451.00
2023-02-17T01:29:27.342Z,99454.00
2023-02-17T01:31:56.534Z,99451.00
2023-02-17T01:34:25.695Z,99451.00
2023-02-17T01:36:55.234Z,99456.00
2023-02-17T01:39:24.396Z,99461.00
2023-02-17T01:41:53.486Z,99463.00
2023-02-17T01:44:26.720Z,99457.00
2023-02-17T01:46:57.780Z,99466.00
2023-02-17T01:49:40.635Z,99467.00
2023-02-17T01:52:23.720Z,99468.00
2023-02-17T01:55:02.295Z,99472.00
2023-02-17T01:57:36.148Z,99469.00
2023-02-17T02:00:11.966Z,99467.00
2023-02-17T02:02:48.567Z,99461.00
2023-02-17T02:05:20.483Z,99461.00
2023-02-17T02:07:51.737Z,99465.00
2023-02-17T02:10:21.607Z,99465.00
2023-02-17T02:12:50.744Z,99474.00
2023-02-17T02:15:27.535Z,99468.00
2023-02-17T02:18:58.488Z,99478.00
2023-02-17T02:21:58.823Z,99483.00
2023-02-17T02:25:09.279Z,99484.00
2023-02-17T02:28:07.586Z,99488.00
2023-02-17T02:31:27.309Z,99491.00
2023-02-17T02:34:05.994Z,99495.00
2023-02-17T02:36:51.053Z,99494.00
2023-02-17T02:39:24.900Z,99510.00
2023-02-17T02:42:11.212Z,99504.00
2023-02-17T02:44:40.311Z,99505.00
2023-02-17T02:47:47.653Z,99515.00
2023-02-17T02:50:30.620Z,99509.00
2023-02-17T02:53:14.033Z,99512.00
2023-02-17T02:55:52.706Z,99520.00
2023-02-17T02:59:12.391Z,99522.00
2023-02-17T03:01:53.040Z,99510.00
2023-02-17T03:04:38.686Z,99509.00
2023-02-17T03:07:23.131Z,99509.00
2023-02-17T03:09:59.601Z,99514.00
2023-02-17T03:12:30.192Z,99517.00
2023-02-17T03:15:30.364Z,99518.00
2023-02-17T03:18:03.113Z,99504.00
2023-02-17T03:20:45.769Z,99496.00
2023-02-17T03:23:15.017Z,99497.00
2023-02-17T03:25:46.001Z,99495.00
2023-02-17T03:28:16.318Z,99488.00
2023-02-17T03:30:45.560Z,99492.00
2023-02-17T03:33:14.896Z,99478.00
2023-02-17T03:35:44.226Z,99478.00
2023-02-17T03:38:13.324Z,99477.00
2023-02-17T03:40:42.408Z,99477.00
2023-02-17T03:43:11.597Z,99476.00
2023-02-17T03:45:40.746Z,99470.00
2023-02-17T03:48:09.870Z,99467.00
2023-02-17T03:50:39.197Z,99465.00
2023-02-17T03:53:08.437Z,99463.00
2023-02-17T03:55:37.623Z,99457.00
2023-02-17T03:58:07.091Z,99455.00
2023-02-17T04:00:36.205Z,99447.00
2023-02-17T04:03:05.475Z,99448.00
2023-02-17T04:05:34.606Z,99447.00
2023-02-17T04:08:03.691Z,99446.00
2023-02-17T04:10:32.862Z,99442.00
2023-02-17T04:13:02.000Z,99449.00
2023-02-17T04:15:31.197Z,99438.00
2023-02-17T04:18:00.570Z,99439.00
2023-02-17T04:20:29.768Z,99435.00
2023-02-17T04:22:58.962Z,99435.00
2023-02-17T04:25:28.115Z,99429.00
2023-02-17T04:27:57.173Z,99426.00
2023-02-17T04:30:27.381Z,99424.00
2023-02-17T04:32:56.611Z,99414.00
2023-02-17T04:35:26.285Z,99414.00
2023-02-17T04:37:56.191Z,99402.00
2023-02-17T04:40:25.960Z,99402.00
2023-02-17T04:42:55.274Z,99401.00
2023-02-17T04:45:25.532Z,99388.00
2023-02-17T04:47:54.705Z,99384.00
2023-02-17T04:50:24.210Z,99379.00
2023-02-17T04:52:53.476Z,99369.00
2023-02-17T04:55:22.661Z,99365.00
2023-02-17T04:57:51.838Z,99358.00
2023-02-17T05:00:21.610Z,99354.00
2023-02-17T05:02:50.749Z,99352.00
2023-02-17T05:05:20.119Z,99342.00
2023-02-17T05:07:49.495Z,99346.00
2023-02-17T05:10:23.679Z,99337.00
2023-02-17T05:12:53.488Z,99336.00
2023-02-17T05:15:22.793Z,99328.00
2023-02-17T05:17:52.382Z,99315.00
2023-02-17T05:20:22.957Z,99311.00
2023-02-17T05:22:52.041Z,99305.00
2023-02-17T05:25:24.338Z,99292.00
2023-02-17T05:27:53.421Z,99306.00
2023-02-17T05:30:22.852Z,99289.00
2023-02-17T05:32:51.975Z,99296.00
2023-02-17T05:35:21.193Z,99286.00
2023-02-17T05:37:50.532Z,99284.00
2023-02-17T05:40:20.002Z,99286.00
2023-02-17T05:42:49.110Z,99267.00
2023-02-17T05:45:18.422Z,99265.00
2023-02-17T05:47:47.535Z,99265.00
2023-02-17T05:50:16.595Z,99256.00
2023-02-17T05:52:47.873Z,99247.00
2023-02-17T05:55:17.151Z,99242.00
2023-02-17T05:57:46.363Z,99236.00
2023-02-17T06:00:16.486Z,99225.00
2023-02-17T06:02:45.731Z,99229.00
2023-02-17T06:05:14.974Z,99222.00
2023-02-17T06:07:44.249Z,99217.00
2023-02-17T06:10:14.231Z,99213.00
2023-02-17T06:12:43.360Z,99211.00
2023-02-17T06:15:12.476Z,99206.00
2023-02-17T06:17:42.640Z,99197.00
2023-02-17T06:20:13.782Z,99198.00
2023-02-17T06:22:44.610Z,99186.00
2023-02-17T06:25:13.892Z,99180.00
2023-02-17T06:27:45.004Z,99171.00
2023-02-17T06:30:16.019Z,99165.00
2023-02-17T06:32:48.547Z,99154.00
2023-02-17T06:35:18.382Z,99160.00
2023-02-17T06:37:47.581Z,99138.00
2023-02-17T06:40:17.288Z,99142.00
2023-02-17T06:42:46.611Z,99136.00
2023-02-17T06:45:15.818Z,99130.00
2023-02-17T06:47:45.494Z,99122.00
2023-02-17T06:50:16.934Z,99113.00
2023-02-17T06:52:46.178Z,99107.00
2023-02-17T06:55:15.420Z,99112.00
2023-02-17T06:57:44.602Z,99107.00
2023-02-17T07:00:14.453Z,99091.00
2023-02-17T07:02:43.696Z,99084.00
2023-02-17T07:05:12.980Z,99080.00
2023-02-17T07:07:42.456Z,99082.00
2023-02-17T07:10:12.281Z,99081.00
2023-02-17T07:12:41.489Z,99073.00
2023-02-17T07:15:12.436Z,99080.00
2023-02-17T07:17:42.205Z,99078.00
2023-02-17T07:20:12.827Z,99067.00
2023-02-17T07:22:42.252Z,99064.00
2023-02-17T07:25:11.442Z,99057.00
2023-02-17T07:27:41.093Z,99054.00
2023-02-17T07:30:11.255Z,99053.00
2023-02-17T07:32:40.603Z,99044.00
2023-02-17T07:35:10.106Z,99043.00
2023-02-17T07:37:39.403Z,99034.00
2023-02-17T07:40:09.572Z,99032.00
2023-02-17T07:42:38.792Z,99044.00
2023-02-17T07:45:08.400Z,99029.00
2023-02-17T07:47:37.619Z,99020.00
2023-02-17T07:50:07.600Z,99018.00
2023-02-17T07:55:20.228Z,99008.00
2023-02-17T07:57:51.014Z,99003.00
2023-02-17T08:00:21.250Z,98999.00
2023-02-17T08:02:50.408Z,98990.00
2023-02-17T08:05:19.784Z,98992.00
2023-02-17T08:07:49.365Z,98993.00
2023-02-17T08:10:36.868Z,98985.00
2023-02-17T08:13:21.471Z,98978.00
2023-02-17T08:15:50.789Z,98968.00
2023-02-17T08:18:20.339Z,98966.00
2023-02-17T08:20:51.449Z,98960.00
2023-02-17T08:23:22.493Z,98963.00
2023-02-17T08:25:51.735Z,98973.00
2023-02-17T08:28:22.545Z,98965.00
2023-02-17T08:30:52.064Z,98965.00
2023-02-17T08:33:24.596Z,98961.00
2023-02-17T08:35:53.930Z,98958.00
2023-02-17T08:38:23.244Z,98962.00
2023-02-17T08:40:52.581Z,98956.00
2023-02-17T08:43:21.720Z,98968.00
2023-02-17T08:45:50.978Z,98962.00
2023-02-17T08:48:20.250Z,98968.00
2023-02-17T08:50:50.021Z,98973.00
2023-02-17T08:53:19.248Z,98968.00
2023-02-17T08:55:49.710Z,98977.00
2023-02-17T08:58:19.476Z,98968.00
2023-02-17T09:00:48.867Z,98979.00
2023-02-17T09:03:18.190Z,98972.00
2023-02-17T09:05:48.337Z,98968.00
2023-02-17T09:08:18.919Z,98972.00
2023-02-17T09:10:48.244Z,98967.00
2023-02-17T09:13:18.194Z,98970.00
2023-02-17T09:15:47.593Z,98971.00
2023-02-17T09:18:20.153Z,98973.00
2023-02-17T09:20:50.712Z,98969.00
2023-02-17T09:23:20.584Z,98966.00
2023-02-17T09:25:52.223Z,98975.00
2023-02-17T09:28:21.445Z,98972.00
2023-02-17T09:30:52.374Z,98980.00
2023-02-17T09:33:22.336Z,98974.00
2023-02-17T09:35:51.782Z,98970.00
2023-02-17T09:38:21.015Z,98968.00
2023-02-17T09:40:51.862Z,98970.00
2023-02-17T09:43:32.445Z,98976.00
2023-02-17T09:46:16.813Z,98968.00
2023-02-17T09:48:49.437Z,98979.00
2023-02-17T09:51:56.625Z,98970.00
2023-02-17T09:54:31.316Z,98980.00
2023-02-17T09:57:05.287Z,98981.00
2023-02-17T10:00:10.327Z,98977.00
2023-02-17T10:03:04.722Z,98982.00
2023-02-17T10:05:43.348Z,98983.00
2023-02-17T10:08:28.829Z,98979.00
2023-02-17T10:11:18.633Z,98977.00
2023-02-17T10:13:50.226Z,98982.00
2023-02-17T10:16:32.057Z,98980.00
2023-02-17T10:19:28.739Z,98985.00
2023-02-17T10:22:21.034Z,98989.00
2023-02-17T10:24:50.333Z,98988.00
2023-02-17T10:27:44.326Z,98987.00
2023-02-17T10:30:33.270Z,98988.00
2023-02-17T10:33:24.855Z,98990.00
2023-02-17T10:36:34.960Z,98990.00
2023-02-17T10:39:17.116Z,98993.00
2023-02-17T10:41:51.870Z,98990.00
2023-02-17T10:44:26.223Z,98992.00
2023-02-17T10:46:56.842Z,98989.00
2023-02-17T10:49:40.577Z,98993.00
2023-02-17T10:52:26.031Z,98985.00
2023-02-17T10:55:35.944Z,98982.00
2023-02-17T10:58:48.461Z,98990.00
2023-02-17T11:01:18.447Z,98992.00
2023-02-17T11:03:47.593Z,98992.00
2023-02-17T11:06:23.851Z,98992.00
2023-02-17T11:09:06.947Z,98990.00
2023-02-17T11:11:38.440Z,98997.00
2023-02-17T11:14:14.004Z,99004.00
2023-02-17T11:17:30.336Z,99000.00
2023-02-17T11:20:10.265Z,99014.00
2023-02-17T11:22:46.723Z,99003.00
2023-02-17T11:25:35.382Z,99009.00
2023-02-17T11:28:15.410Z,99016.00
2023-02-17T11:30:55.642Z,99021.00
2023-02-17T11:33:41.452Z,99021.00
2023-02-17T11:36:26.038Z,99019.00
2023-02-17T11:38:55.801Z,99020.00
2023-02-17T11:41:26.082Z,99025.00
2023-02-17T11:44:01.075Z,99031.00
2023-02-17T11:47:12.308Z,99034.00
2023-02-17T11:49:56.889Z,99037.00
2023-02-17T11:53:06.061Z,99048.00
2023-02-17T11:56:00.346Z,99053.00
2023-02-17T11:59:22.612Z,99057.00
2023-02-17T12:02:18.307Z,99062.00
2023-02-17T12:05:21.976Z,99062.00
2023-02-17T12:08:03.213Z,99064.00
2023-02-17T12:11:15.760Z,99073.00
2023-02-17T12:13:54.654Z,99075.00
2023-02-17T12:16:47.288Z,99087.00
2023-02-17T12:19:42.206Z,99095.00
2023-02-17T12:22:14.417Z,99099.00
2023-02-17T12:25:05.290Z,99105.00
2023-02-17T12:27:57.626Z,99108.00
2023-02-17T12:30:38.615Z,99118.00
2023-02-17T12:33:26.069Z,99114.00
2023-02-17T12:36:12.419Z,99112.00
2023-02-17T12:38:54.633Z,99113.00
2023-02-17T12:41:31.701Z,99121.00
2023-02-17T12:44:14.441Z,99118.00
2023-02-17T12:46:53.852Z,99123.00
2023-02-17T12:49:43.089Z,99131.00
2023-02-17T12:52:41.776Z,99125.00
2023-02-17T12:55:49.471Z,99136.00
2023-02-17T12:58:31.562Z,99135.00
2023-02-17T13:01:10.984Z,99135.00
2023-02-17T13:03:40.384Z,99146.00
2023-02-17T13:06:38.011Z,99147.00
2023-02-17T13:09:46.374Z,99150.00
2023-02-17T13:12:27.454Z,99155.00
2023-02-17T13:15:07.145Z,99161.00
2023-02-17T13:17:53.187Z,99176.00
2023-02-17T13:20:53.340Z,99173.00
2023-02-17T13:23:39.689Z,99171.00
2023-02-17T13:26:22.296Z,99182.00
2023-02-17T13:28:55.008Z,99180.00
2023-02-17T13:31:28.561Z,99183.00
2023-02-17T13:34:01.748Z,99182.00
2023-02-17T13:36:31.104Z,99178.00
2023-02-17T13:39:11.121Z,99184.00
2023-02-17T13:41:50.024Z,99191.00
2023-02-17T13:44:40.700Z,99195.00
2023-02-17T13:47:31.008Z,99196.00
2023-02-17T13:50:00.340Z,99201.00
2023-02-17T13:52:33.009Z,99197.00
2023-02-17T13:55:06.250Z,99201.00
2023-02-17T13:57:38.591Z,99198.00
2023-02-17T14:00:12.316Z,99205.00
2023-02-17T14:03:13.858Z,99199.00
2023-02-17T14:05:48.140Z,99208.00
2023-02-17T14:08:25.154Z,99209.00
2023-02-17T14:10:55.078Z,99208.00
2023-02-17T14:13:26.069Z,99208.00
2023-02-17T14:16:01.322Z,99200.00
2023-02-17T14:18:38.961Z,99203.00
2023-02-17T14:21:37.876Z,99198.00
2023-02-17T14:24:10.278Z,99202.00
2023-02-17T14:26:50.784Z,99196.00
2023-02-17T14:29:20.006Z,99195.00
2023-02-17T14:31:53.401Z,99198.00
2023-02-17T14:34:32.885Z,99195.00
2023-02-17T14:37:22.038Z,99189.00
2023-02-17T14:39:51.839Z,99187.00
2023-02-17T14:42:21.093Z,99197.00
2023-02-17T14:44:50.315Z,99195.00
2023-02-17T14:47:19.650Z,99198.00
2023-02-17T14:49:48.796Z,99197.00
2023-02-17T14:52:25.522Z,99202.00
2023-02-17T14:54:54.831Z,99200.00
2023-02-17T14:57:29.385Z,99201.00
2023-02-17T14:59:58.725Z,99194.00
2023-02-17T15:02:27.910Z,99200.00
2023-02-17T15:04:57.251Z,99195.00
2023-02-17T15:07:26.444Z,99195.00
2023-02-17T15:09:56.019Z,99200.00
2023-02-17T15:12:27.126Z,99203.00
2023-02-17T15:14:57.300Z,99201.00
2023-02-17T15:17:26.518Z,99208.00
2023-02-17T15:19:55.873Z,99208.00
2023-02-17T15:22:26.417Z,99210.00
2023-02-17T15:24:55.657Z,99208.00
2023-02-17T15:27:24.819Z,99198.00
2023-02-17T15:29:54.041Z,99202.00
2023-02-17T15:32:24.953Z,99202.00
2023-02-17T15:34:54.259Z,99206.00
2023-02-17T15:37:23.976Z,99210.00
2023-02-17T15:39:53.163Z,99207.00
2023-02-17T15:42:22.341Z,99201.00
2023-02-17T15:44:52.988Z,99207.00
2023-02-17T15:47:23.118Z,99202.00
2023-02-17T15:49:52.384Z,99200.00
2023-02-17T15:52:21.735Z,99201.00
2023-02-17T15:54:51.005Z,99205.00
2023-02-17T15:57:25.896Z,99204.00
2023-02-17T15:59:56.194Z,99204.00
2023-02-17T16:02:27.126Z,99205.00
2023-02-17T16:04:56.535Z,99203.00
2023-02-17T16:07:25.706Z,99193.00
2023-02-17T16:09:54.868Z,99194.00
2023-02-17T16:12:27.691Z,99193.00
2023-02-17T16:14:58.931Z,99188.00
2023-02-17T16:17:28.861Z,99191.00
2023-02-17T16:19:58.503Z,99189.00
2023-02-17T16:22:28.865Z,99186.00
2023-02-17T16:24:58.233Z,99190.00
2023-02-17T16:27:27.611Z,99188.00
2023-02-17T16:29:56.976Z,99187.00
2023-02-17T16:32:26.343Z,99201.00
2023-02-17T16:34:55.537Z,99191.00
2023-02-17T16:37:24.806Z,99199.00
2023-02-17T16:39:53.972Z,99193.00
2023-02-17T16:42:23.264Z,99195.00
2023-02-17T16:44:52.494Z,99188.00
2023-02-17T16:47:24.788Z,99195.00
2023-02-17T16:49:54.126Z,99192.00
2023-02-17T16:52:28.977Z,99195.00
2023-02-17T16:54:58.269Z,99197.00
2023-02-17T16:57:27.685Z,99185.00
2023-02-17T16:59:57.093Z,99194.00
2023-02-17T17:02:26.322Z,99188.00
2023-02-17T17:04:55.594Z,99184.00
2023-02-17T17:07:24.811Z,99190.00
2023-02-17T17:10:15.314Z,99197.00
2023-02-17T17:12:44.733Z,99201.00
2023-02-17T17:15:15.689Z,99198.00
2023-02-17T17:18:10.779Z,99199.00
2023-02-17T17:20:41.849Z,99195.00
2023-02-17T17:23:16.026Z,99194.00
2023-02-17T17:25:47.798Z,99193.00
2023-02-17T17:28:19.755Z,99199.00
2023-02-17T17:30:50.634Z,99195.00
2023-02-17T17:33:19.831Z,99196.00
2023-02-17T17:35:49.015Z,99197.00
2023-02-17T17:38:18.360Z,99192.00
2023-02-17T17:40:50.305Z,99192.00
2023-02-17T17:43:26.930Z,99192.00
2023-02-17T17:45:57.097Z,99184.00
2023-02-17T17:48:26.341Z,99174.00
2023-02-17T17:50:55.505Z,99171.00
2023-02-17T17:53:24.677Z,99170.00
2023-02-17T17:55:53.899Z,99165.00
2023-02-17T17:58:23.075Z,99160.00
2023-02-17T18:00:53.982Z,99160.00
2023-02-17T18:03:23.183Z,99151.00
2023-02-17T18:05:52.666Z,99155.00
2023-02-17T18:08:22.004Z,99151.00
2023-02-17T18:10:51.452Z,99156.00
2023-02-17T18:13:21.499Z,99159.00
2023-02-17T18:15:51.097Z,99153.00
2023-02-17T18:18:21.882Z,99146.00
2023-02-17T18:20:51.100Z,99147.00
2023-02-17T18:23:20.199Z,99137.00
2023-02-17T18:25:49.333Z,99140.00
2023-02-17T18:28:18.489Z,99133.00
2023-02-17T18:30:47.742Z,99142.00
2023-02-17T18:33:16.968Z,99139.00
2023-02-17T18:35:46.581Z,99133.00
2023-02-17T18:38:15.743Z,99126.00
2023-02-17T18:40:44.979Z,99124.00
2023-02-17T18:43:15.680Z,99115.00
2023-02-17T18:45:50.877Z,99109.00
2023-02-17T18:48:21.083Z,99101.00
2023-02-17T18:50:51.527Z,99103.00
2023-02-17T18:53:21.047Z,99097.00
2023-02-17T18:55:50.835Z,99108.00
2023-02-17T18:58:20.472Z,99104.00
2023-02-17T19:00:49.561Z,99105.00
2023-02-17T19:03:18.658Z,99100.00
2023-02-17T19:05:47.759Z,99108.00
2023-02-17T19:08:16.851Z,99113.00
2023-02-17T19:10:46.351Z,99113.00
2023-02-17T19:13:15.553Z,99102.00
2023-02-17T19:15:44.673Z,99108.00
2023-02-17T19:18:14.558Z,99104.00
2023-02-17T19:20:45.666Z,99106.00
2023-02-17T19:23:14.836Z,99107.00
2023-02-17T19:25:43.927Z,99095.00
2023-02-17T19:28:13.885Z,99095.00
2023-02-17T19:30:43.263Z,99095.00
2023-02-17T19:33:12.533Z,99090.00
2023-02-17T19:35:46.266Z,99090.00
2023-02-17T19:38:15.565Z,99090.00
2023-02-17T19:40:44.829Z,99083.00
2023-02-17T19:43:14.112Z,99088.00
2023-02-17T19:45:44.537Z,99093.00
2023-02-17T19:48:13.666Z,99094.00
2023-02-17T19:50:42.747Z,99090.00
2023-02-17T19:53:12.523Z,99097.00
2023-02-17T19:55:41.651Z,99099.00
2023-02-17T19:58:10.727Z,99096.00
2023-02-17T20:00:39.853Z,99089.00
2023-02-17T20:03:09.121Z,99081.00
2023-02-17T20:05:42.961Z,99078.00
2023-02-17T20:08:12.152Z,99071.00
2023-02-17T20:10:42.061Z,99076.00
2023-02-17T20:13:11.112Z,99074.00
2023-02-17T20:15:40.276Z,99071.00
2023-02-17T20:18:09.718Z,99076.00
2023-02-17T20:20:39.267Z,99071.00
2023-02-17T20:23:08.539Z,99068.00
2023-02-17T20:25:42.422Z,99059.00
2023-02-17T20:28:11.553Z,99062.00
2023-02-17T20:30:40.815Z,99073.00
2023-02-17T20:33:10.990Z,99069.00
2023-02-17T20:35:40.598Z,99058.00
2023-02-17T20:38:10.202Z,99065.00
2023-02-17T20:40:39.388Z,99066.00
2023-02-17T20:43:13.190Z,99069.00
2023-02-17T20:45:44.106Z,99062.00
2023-02-17T20:48:13.428Z,99053.00
2023-02-17T20:50:43.476Z,99061.00
2023-02-17T20:53:12.977Z,99066.00
2023-02-17T20:55:42.264Z,99050.00
2023-02-17T20:58:13.217Z,99055.00
2023-02-17T21:00:42.465Z,99047.00
2023-02-17T21:03:11.677Z,99049.00
2023-02-17T21:05:40.956Z,99049.00
2023-02-17T21:08:10.066Z,99032.00
2023-02-17T21:10:41.024Z,99025.00
2023-02-17T21:13:10.142Z,99017.00
2023-02-17T21:15:39.263Z,99008.00
2023-02-17T21:18:09.807Z,99014.00
2023-02-17T21:20:38.972Z,99011.00
2023-02-17T21:23:09.062Z,99019.00
2023-02-17T21:25:38.348Z,99027.00
2023-02-17T21:28:07.463Z,99034.00
2023-02-17T21:30:36.561Z,99033.00
2023-02-17T21:33:05.823Z,99040.00
2023-02-17T21:35:34.947Z,99032.00
2023-02-17T21:38:04.089Z,99024.00
2023-02-17T21:40:33.421Z,99025.00
2023-02-17T21:43:20.702Z,99032.00
2023-02-17T21:45:49.896Z,99023.00
2023-02-17T21:48:18.955Z,99026.00
2023-02-17T21:50:48.087Z,99020.00
2023-02-17T21:53:17.241Z,99025.00
2023-02-17T21:55:47.420Z,99025.00
2023-02-17T21:58:16.556Z,99022.00
2023-02-17T22:00:45.753Z,99020.00
2023-02-17T22:03:14.882Z,99025.00
2023-02-17T22:05:44.001Z,99024.00
2023-02-17T22:08:13.475Z,99033.00
2023-02-17T22:10:44.477Z,99031.00
2023-02-17T22:13:13.604Z,99035.00
2023-02-17T22:15:42.876Z,99038.00
2023-02-17T22:18:12.012Z,99043.00
2023-02-17T22:20:45.628Z,99038.00
2023-02-17T22:23:14.904Z,99032.00
2023-02-17T22:25:44.552Z,99038.00
2023-02-17T22:28:14.579Z,99054.00
2023-02-17T22:30:43.961Z,99055.00
2023-02-17T22:33:13.136Z,99059.00
2023-02-17T22:35:42.345Z,99068.00
2023-02-17T22:38:12.625Z,99059.00
2023-02-17T22:40:42.948Z,99060.00
2023-02-17T22:43:12.117Z,99065.00
2023-02-17T22:45:42.017Z,99061.00
2023-02-17T22:48:11.305Z,99057.00
2023-02-17T22:50:43.988Z,99063.00
2023-02-17T22:53:13.165Z,99078.00
2023-02-17T22:55:42.320Z,99084.00
2023-02-17T22:58:11.493Z,99090.00
2023-02-17T23:00:40.699Z,99089.00
2023-02-17T23:03:10.000Z,99087.00
2023-02-17T23:05:39.256Z,99101.00
2023-02-17T23:08:08.422Z,99103.00
2023-02-17T23:10:45.514Z,99109.00
2023-02-17T23:13:14.705Z,99104.00
2023-02-17T23:15:43.938Z,99102.00
2023-02-17T23:18:18.413Z,99092.00
2023-02-17T23:20:52.690Z,99098.00
2023-02-17T23:23:22.296Z,99101.00
2023-02-17T23:25:55.787Z,99104.00
2023-02-17T23:28:27.363Z,99105.00
2023-02-17T23:30:56.779Z,99105.00
2023-02-17T23:33:26.869Z,99125.00
2023-02-17T23:35:56.095Z,99130.00
2023-02-17T23:38:25.356Z,99138.00
2023-02-17T23:40:54.965Z,99138.00
2023-02-17T23:43:24.245Z,99153.00
2023-02-17T23:45:57.971Z,99173.00
2023-02-17T23:48:27.552Z,99181.00
2023-02-17T23:51:05.535Z,99180.00
2023-02-17T23:53:35.736Z,99185.00
2023-02-17T23:56:10.200Z,99189.00
2023-02-17T23:58:39.546Z,99181.00
